Time;durP1;ratioP1;P1;durP2;ratioP2;P2;SDS_P1;SDS_P2;PMS_P1;PMS_P2;Temp;Humidity;BMP_temperature;BMP_pressure;BME280_temperature;BME280_humidity;BME280_pressure;Samples;Min_cycle;Max_cycle;Signal;HPM_P1;HPM_P2
2022/01/18 00:01:46;;;;;;;43.38;7.60;;;;;;;;;;4863770;29;20056;-78
2022/01/18 00:04:13;;;;;;;44.92;7.20;;;;;;;;;;4862999;29;20049;-77
2022/01/18 00:06:41;;;;;;;42.35;7.75;;;;;;;;;;4863912;29;20479;-77
2022/01/18 00:09:08;;;;;;;48.92;7.72;;;;;;;;;;4884453;29;20080;-77
2022/01/18 00:11:42;;;;;;;40.20;8.40;;;;;;;;;;4863483;29;20479;-80
2022/01/18 00:14:21;;;;;;;49.63;7.10;;;;;;;;;;4863980;29;20137;-77
2022/01/18 00:17:17;;;;;;;48.30;6.93;;;;;;;;;;4862953;29;20041;-79
2022/01/18 00:19:54;;;;;;;38.70;8.00;;;;;;;;;;4863811;29;20128;-79
2022/01/18 00:22:21;;;;;;;57.05;8.77;;;;;;;;;;4879243;29;20043;-79
2022/01/18 00:24:47;;;;;;;43.80;6.88;;;;;;;;;;4878466;29;20049;-78
2022/01/18 00:27:19;;;;;;;52.72;7.45;;;;;;;;;;4863304;29;20076;-77
2022/01/18 00:29:57;;;;;;;49.67;8.25;;;;;;;;;;4863436;29;20045;-79
2022/01/18 00:32:49;;;;;;;48.85;7.47;;;;;;;;;;4863531;29;20452;-78
2022/01/18 00:35:16;;;;;;;51.83;9.63;;;;;;;;;;4863341;29;20461;-77
2022/01/18 00:37:51;;;;;;;46.85;8.15;;;;;;;;;;4862431;29;20088;-77
2022/01/18 00:40:17;;;;;;;54.60;8.27;;;;;;;;;;4863355;29;20076;-76
2022/01/18 00:42:44;;;;;;;38.38;7.32;;;;;;;;;;4863376;29;20128;-77
2022/01/18 00:45:10;;;;;;;44.22;8.32;;;;;;;;;;4863328;29;20139;-77
2022/01/18 00:47:36;;;;;;;42.20;7.28;;;;;;;;;;4861877;29;20057;-80
2022/01/18 00:50:03;;;;;;;42.45;7.85;;;;;;;;;;4863083;29;20053;-77
2022/01/18 00:52:32;;;;;;;38.03;6.65;;;;;;;;;;4863525;29;20056;-78
2022/01/18 00:55:00;;;;;;;44.95;7.18;;;;;;;;;;4863888;29;20480;-78
2022/01/18 00:57:27;;;;;;;38.00;7.05;;;;;;;;;;4879569;29;20480;-79
2022/01/18 00:59:53;;;;;;;34.67;6.20;;;;;;;;;;4865092;29;20056;-78
2022/01/18 01:02:19;;;;;;;29.67;6.18;;;;;;;;;;4865149;29;20139;-76
2022/01/18 01:04:54;;;;;;;28.00;5.18;;;;;;;;;;4865503;29;20067;-79
2022/01/18 01:07:22;;;;;;;27.50;5.50;;;;;;;;;;4864334;29;20090;-78
2022/01/18 01:09:54;;;;;;;25.98;6.00;;;;;;;;;;4865748;29;20041;-77
2022/01/18 01:12:24;;;;;;;29.60;5.40;;;;;;;;;;4864873;29;20164;-78
2022/01/18 01:15:03;;;;;;;31.25;5.20;;;;;;;;;;4865833;29;20140;-78
2022/01/18 01:36:50;;;;;;;30.38;5.40;;;;;;;;;;4880322;29;20045;-77
2022/01/18 01:42:30;;;;;;;27.30;5.40;;;;;;;;;;4880992;29;20100;-77
2022/01/18 01:44:58;;;;;;;30.85;6.10;;;;;;;;;;4866114;29;20087;-78
2022/01/18 01:47:34;;;;;;;24.50;4.82;;;;;;;;;;4879199;29;20148;-78
2022/01/18 01:50:00;;;;;;;28.75;5.45;;;;;;;;;;4866348;29;20136;-77
2022/01/18 01:52:27;;;;;;;26.20;4.28;;;;;;;;;;4865798;29;20476;-76
2022/01/18 01:54:56;;;;;;;23.38;4.72;;;;;;;;;;4865769;29;20114;-79
2022/01/18 01:57:22;;;;;;;24.80;4.80;;;;;;;;;;4864769;29;20477;-77
2022/01/18 01:59:49;;;;;;;23.27;5.05;;;;;;;;;;4865581;29;20426;-78
2022/01/18 02:02:15;;;;;;;22.48;4.50;;;;;;;;;;4865900;29;20132;-78
2022/01/18 02:04:41;;;;;;;19.27;4.30;;;;;;;;;;4865578;29;20096;-78
2022/01/18 02:07:07;;;;;;;27.10;4.18;;;;;;;;;;4864859;29;20182;-79
2022/01/18 02:09:33;;;;;;;20.02;4.13;;;;;;;;;;4879526;29;20041;-77
2022/01/18 02:12:01;;;;;;;29.00;4.65;;;;;;;;;;4864525;29;20045;-78
2022/01/18 02:14:28;;;;;;;18.40;4.30;;;;;;;;;;4881450;29;20059;-78
2022/01/18 02:22:25;;;;;;;19.08;4.53;;;;;;;;;;4881028;29;20052;-76
2022/01/18 02:24:52;;;;;;;22.92;4.55;;;;;;;;;;4865837;29;20045;-78
2022/01/18 02:27:18;;;;;;;17.98;4.30;;;;;;;;;;4863318;29;20435;-77
2022/01/18 02:29:44;;;;;;;18.50;4.28;;;;;;;;;;4865263;29;20060;-78
2022/01/18 02:32:10;;;;;;;22.38;5.50;;;;;;;;;;4865085;29;20044;-78
2022/01/18 02:34:37;;;;;;;17.33;4.18;;;;;;;;;;4864947;29;20468;-79
2022/01/18 02:37:04;;;;;;;16.48;4.55;;;;;;;;;;4864355;29;20092;-78
2022/01/18 02:39:30;;;;;;;12.48;3.95;;;;;;;;;;4864715;29;20445;-77
2022/01/18 02:41:58;;;;;;;14.50;3.75;;;;;;;;;;4864801;29;20053;-78
2022/01/18 02:44:25;;;;;;;17.42;4.18;;;;;;;;;;4864936;29;20318;-78
2022/01/18 02:46:51;;;;;;;16.67;4.10;;;;;;;;;;4863808;29;20537;-76
2022/01/18 02:49:17;;;;;;;13.38;3.88;;;;;;;;;;4879853;29;20053;-78
2022/01/18 02:51:43;;;;;;;18.55;4.00;;;;;;;;;;4864988;29;20345;-76
2022/01/18 02:54:11;;;;;;;15.25;3.33;;;;;;;;;;4864814;29;20052;-78
2022/01/18 02:56:43;;;;;;;14.52;3.22;;;;;;;;;;4864240;29;20080;-77
2022/01/18 02:59:19;;;;;;;15.32;2.95;;;;;;;;;;4879759;29;20052;-77
2022/01/18 03:04:32;;;;;;;13.30;2.90;;;;;;;;;;4880383;29;20045;-78
2022/01/18 03:06:59;;;;;;;17.85;2.88;;;;;;;;;;4863303;29;20041;-76
2022/01/18 03:09:25;;;;;;;8.05;2.78;;;;;;;;;;4864013;29;20048;-77
2022/01/18 03:11:51;;;;;;;12.05;2.83;;;;;;;;;;4864485;29;20124;-77
2022/01/18 03:14:17;;;;;;;11.15;2.50;;;;;;;;;;4879910;29;20100;-77
2022/01/18 03:16:43;;;;;;;10.82;2.42;;;;;;;;;;4864179;29;20045;-77
2022/01/18 03:19:10;;;;;;;10.02;2.85;;;;;;;;;;4864092;29;20468;-78
2022/01/18 03:21:42;;;;;;;13.32;3.10;;;;;;;;;;4879318;29;20469;-77
2022/01/18 03:25:00;;;;;;;12.65;2.45;;;;;;;;;;4879571;29;20036;-80
2022/01/18 03:29:43;;;;;;;11.13;3.25;;;;;;;;;;4879283;29;20045;-78
2022/01/18 03:32:10;;;;;;;11.63;2.83;;;;;;;;;;4879935;29;20045;-78
2022/01/18 03:34:36;;;;;;;15.60;3.17;;;;;;;;;;4879608;29;20139;-82
2022/01/18 03:37:02;;;;;;;11.95;2.90;;;;;;;;;;4863832;29;20127;-79
2022/01/18 03:39:28;;;;;;;12.60;2.78;;;;;;;;;;4878966;29;20121;-77
2022/01/18 03:42:18;;;;;;;11.38;2.92;;;;;;;;;;4864238;29;20441;-77
2022/01/18 03:44:45;;;;;;;9.35;3.33;;;;;;;;;;4879159;29;20076;-78
2022/01/18 03:47:14;;;;;;;14.35;2.90;;;;;;;;;;4862838;29;20068;-77
2022/01/18 03:49:40;;;;;;;10.55;3.75;;;;;;;;;;4863870;29;20049;-78
2022/01/18 03:52:09;;;;;;;12.90;3.25;;;;;;;;;;4863952;29;20053;-77
2022/01/18 03:54:42;;;;;;;17.33;3.25;;;;;;;;;;4863515;29;20441;-78
2022/01/18 03:57:09;;;;;;;10.10;3.00;;;;;;;;;;4862794;29;20045;-78
2022/01/18 03:59:35;;;;;;;13.68;3.00;;;;;;;;;;4863307;29;20469;-79
2022/01/18 04:02:01;;;;;;;11.10;3.20;;;;;;;;;;4878958;29;20049;-76
2022/01/18 04:04:28;;;;;;;13.82;3.70;;;;;;;;;;4862986;29;20052;-76
2022/01/18 04:06:54;;;;;;;12.27;3.53;;;;;;;;;;4879315;29;20044;-76
2022/01/18 04:09:20;;;;;;;12.55;2.92;;;;;;;;;;4863457;29;20098;-77
2022/01/18 04:11:47;;;;;;;10.00;2.92;;;;;;;;;;4863293;29;20049;-79
2022/01/18 04:14:13;;;;;;;11.77;2.95;;;;;;;;;;4863016;29;21705;-80
2022/01/18 04:16:57;;;;;;;13.88;2.83;;;;;;;;;;4863640;29;20056;-77
2022/01/18 04:27:40;;;;;;;12.52;3.13;;;;;;;;;;4879345;29;20117;-78
2022/01/18 04:30:06;;;;;;;10.20;2.58;;;;;;;;;;4863491;29;20068;-77
2022/01/18 04:32:32;;;;;;;9.45;2.40;;;;;;;;;;4879256;29;20440;-78
2022/01/18 04:35:01;;;;;;;8.18;2.65;;;;;;;;;;4862435;29;20097;-78
2022/01/18 04:37:27;;;;;;;10.32;2.30;;;;;;;;;;4862223;29;20080;-77
2022/01/18 04:39:53;;;;;;;9.48;2.42;;;;;;;;;;4863369;29;20041;-77
2022/01/18 04:42:37;;;;;;;15.98;3.60;;;;;;;;;;4863218;29;20116;-78
2022/01/18 04:50:36;;;;;;;12.32;2.63;;;;;;;;;;4862986;29;20061;-78
2022/01/18 04:53:05;;;;;;;11.90;3.05;;;;;;;;;;4848349;29;20117;-77
2022/01/18 04:55:32;;;;;;;14.07;3.00;;;;;;;;;;4858073;29;20049;-79
2022/01/18 04:57:59;;;;;;;11.48;2.88;;;;;;;;;;4882098;29;20457;-78
2022/01/18 05:00:26;;;;;;;13.40;2.90;;;;;;;;;;4866527;29;20045;-78
2022/01/18 05:02:53;;;;;;;10.60;2.42;;;;;;;;;;4867006;29;20117;-77
2022/01/18 05:05:28;;;;;;;12.23;2.60;;;;;;;;;;4881759;29;20041;-77
2022/01/18 05:07:58;;;;;;;12.70;3.10;;;;;;;;;;4880474;29;20128;-77
2022/01/18 05:10:27;;;;;;;14.85;3.15;;;;;;;;;;4866791;29;20075;-77
2022/01/18 05:12:55;;;;;;;13.23;3.58;;;;;;;;;;4866372;29;20083;-76
2022/01/18 05:18:13;;;;;;;15.40;3.55;;;;;;;;;;4881598;29;20045;-80
2022/01/18 05:23:20;;;;;;;14.77;3.55;;;;;;;;;;4881961;29;20049;-77
2022/01/18 05:25:47;;;;;;;14.70;3.65;;;;;;;;;;4865604;29;20434;-78
2022/01/18 05:28:13;;;;;;;17.33;3.95;;;;;;;;;;4866050;29;20399;-79
2022/01/18 05:30:40;;;;;;;16.30;4.30;;;;;;;;;;4866723;29;20045;-77
2022/01/18 05:33:06;;;;;;;16.02;4.07;;;;;;;;;;4865830;29;20472;-77
2022/01/18 05:35:33;;;;;;;15.02;4.20;;;;;;;;;;4865571;29;20036;-79
2022/01/18 05:37:59;;;;;;;16.50;3.90;;;;;;;;;;4865912;29;20483;-78
2022/01/18 05:40:26;;;;;;;9.43;3.47;;;;;;;;;;4865671;29;20117;-77
2022/01/18 05:42:52;;;;;;;11.48;3.25;;;;;;;;;;4865942;29;20041;-78
2022/01/18 05:45:18;;;;;;;15.25;4.05;;;;;;;;;;4865845;29;20045;-76
2022/01/18 05:47:44;;;;;;;13.57;4.35;;;;;;;;;;4865652;29;20057;-77
2022/01/18 05:50:11;;;;;;;13.27;4.00;;;;;;;;;;4865573;29;20060;-79
2022/01/18 05:52:37;;;;;;;17.65;4.25;;;;;;;;;;4865574;29;20053;-78
2022/01/18 05:55:04;;;;;;;14.68;3.75;;;;;;;;;;4880838;29;20192;-79
2022/01/18 05:57:30;;;;;;;15.75;4.53;;;;;;;;;;4865848;29;20053;-78
2022/01/18 06:00:08;;;;;;;15.60;3.53;;;;;;;;;;4865424;29;20425;-79
2022/01/18 06:07:51;;;;;;;14.43;3.63;;;;;;;;;;4880795;29;20041;-76
2022/01/18 06:10:17;;;;;;;13.07;4.43;;;;;;;;;;4865380;29;20063;-77
2022/01/18 06:12:43;;;;;;;17.05;4.32;;;;;;;;;;4865579;29;20048;-76
2022/01/18 06:15:10;;;;;;;15.98;3.85;;;;;;;;;;4864769;29;20053;-81
2022/01/18 06:17:36;;;;;;;13.45;4.13;;;;;;;;;;4865421;29;20037;-78
2022/01/18 06:20:03;;;;;;;12.98;3.92;;;;;;;;;;4865244;29;20524;-79
2022/01/18 06:22:29;;;;;;;18.60;3.90;;;;;;;;;;4865845;29;20045;-78
2022/01/18 06:24:55;;;;;;;19.00;5.10;;;;;;;;;;4880461;29;20073;-79
2022/01/18 06:27:21;;;;;;;17.50;5.07;;;;;;;;;;4880643;29;20096;-79
2022/01/18 06:29:47;;;;;;;15.45;4.03;;;;;;;;;;4864500;29;20166;-77
2022/01/18 06:32:13;;;;;;;17.95;5.75;;;;;;;;;;4864855;29;20055;-79
2022/01/18 06:34:39;;;;;;;19.25;5.40;;;;;;;;;;4864589;29;20053;-79
2022/01/18 06:37:07;;;;;;;18.48;5.68;;;;;;;;;;4864881;29;20491;-78
2022/01/18 06:39:33;;;;;;;22.13;5.22;;;;;;;;;;4864032;29;20084;-79
2022/01/18 06:41:59;;;;;;;15.60;4.57;;;;;;;;;;4880534;29;20123;-79
2022/01/18 06:44:25;;;;;;;20.23;5.45;;;;;;;;;;4865034;29;20140;-79
2022/01/18 06:46:52;;;;;;;18.02;5.95;;;;;;;;;;4864205;29;20472;-77
2022/01/18 06:49:18;;;;;;;20.65;5.78;;;;;;;;;;4864189;29;20053;-77
2022/01/18 06:51:44;;;;;;;17.63;4.50;;;;;;;;;;4864929;29;20056;-78
2022/01/18 06:54:15;;;;;;;19.25;4.50;;;;;;;;;;4865097;29;20052;-77
2022/01/18 06:56:48;;;;;;;17.05;4.80;;;;;;;;;;4864542;29;20040;-78
2022/01/18 06:59:14;;;;;;;19.70;5.80;;;;;;;;;;4863076;29;20124;-77
2022/01/18 07:01:43;;;;;;;21.58;4.97;;;;;;;;;;4864975;29;20048;-78
2022/01/18 07:04:13;;;;;;;13.45;3.80;;;;;;;;;;4864684;29;20044;-76
2022/01/18 07:06:39;;;;;;;11.00;3.65;;;;;;;;;;4865039;29;20117;-79
2022/01/18 07:09:05;;;;;;;13.48;3.92;;;;;;;;;;4863418;29;20055;-77
2022/01/18 07:11:31;;;;;;;20.05;6.07;;;;;;;;;;4861556;29;20064;-78
2022/01/18 07:13:57;;;;;;;22.25;7.28;;;;;;;;;;4846255;29;20084;-77
2022/01/18 07:16:23;;;;;;;13.32;3.90;;;;;;;;;;4846366;29;20165;-78
2022/01/18 07:18:53;;;;;;;14.90;4.45;;;;;;;;;;4856296;29;20041;-77
2022/01/18 07:21:19;;;;;;;14.52;4.63;;;;;;;;;;4879096;29;20037;-80
2022/01/18 07:23:45;;;;;;;14.30;5.05;;;;;;;;;;4864583;29;20223;-79
2022/01/18 07:26:11;;;;;;;14.45;4.18;;;;;;;;;;4864572;29;20037;-77
2022/01/18 07:28:37;;;;;;;18.73;4.25;;;;;;;;;;4878830;29;20412;-77
2022/01/18 07:31:03;;;;;;;14.48;4.63;;;;;;;;;;4863972;29;20051;-77
2022/01/18 07:33:29;;;;;;;15.57;4.88;;;;;;;;;;4864467;29;20153;-79
2022/01/18 07:35:55;;;;;;;19.42;5.63;;;;;;;;;;4864111;29;20041;-77
2022/01/18 07:38:21;;;;;;;36.30;6.15;;;;;;;;;;4862724;29;20056;-80
2022/01/18 07:40:53;;;;;;;50.72;7.20;;;;;;;;;;4862619;29;20045;-77
2022/01/18 07:43:20;;;;;;;25.13;6.60;;;;;;;;;;4863894;29;20041;-78
2022/01/18 07:45:47;;;;;;;54.17;7.20;;;;;;;;;;4879034;29;20053;-77
2022/01/18 07:48:13;;;;;;;65.38;8.35;;;;;;;;;;4878437;29;20068;-77
2022/01/18 07:50:40;;;;;;;85.43;9.50;;;;;;;;;;4864084;29;20049;-76
2022/01/18 07:53:11;;;;;;;36.72;7.32;;;;;;;;;;4864254;29;20068;-80
2022/01/18 07:55:37;;;;;;;41.63;6.93;;;;;;;;;;4863979;29;20041;-77
2022/01/18 07:58:03;;;;;;;81.28;11.75;;;;;;;;;;4862863;29;20041;-77
2022/01/18 08:00:29;;;;;;;71.28;12.25;;;;;;;;;;4863125;29;20544;-79
2022/01/18 08:02:58;;;;;;;135.88;26.17;;;;;;;;;;4879515;29;20077;-77
2022/01/18 08:05:24;;;;;;;113.18;22.25;;;;;;;;;;4885213;29;20048;-76
2022/01/18 08:07:50;;;;;;;75.43;10.25;;;;;;;;;;4870118;29;20102;-79
2022/01/18 08:10:19;;;;;;;55.63;8.27;;;;;;;;;;4854521;29;21731;-77
2022/01/18 08:12:46;;;;;;;61.72;7.70;;;;;;;;;;4888995;29;20124;-77
2022/01/18 08:15:15;;;;;;;99.68;11.57;;;;;;;;;;4878865;29;20437;-76
2022/01/18 08:17:43;;;;;;;129.85;12.50;;;;;;;;;;4877693;29;20080;-76
2022/01/18 08:20:13;;;;;;;93.85;10.73;;;;;;;;;;4863473;29;20124;-76
2022/01/18 08:22:39;;;;;;;152.45;12.80;;;;;;;;;;4878498;29;20049;-76
2022/01/18 08:25:05;;;;;;;157.80;13.57;;;;;;;;;;4865223;29;20044;-79
2022/01/18 08:27:32;;;;;;;75.38;9.38;;;;;;;;;;4867191;29;20525;-77
2022/01/18 08:30:00;;;;;;;90.60;10.18;;;;;;;;;;4866762;29;20056;-77
2022/01/18 08:32:26;;;;;;;46.83;8.18;;;;;;;;;;4883076;29;20144;-75
2022/01/18 08:34:52;;;;;;;34.28;7.35;;;;;;;;;;4883562;29;20053;-75
2022/01/18 08:37:19;;;;;;;22.55;6.80;;;;;;;;;;4866516;29;20503;-77
2022/01/18 08:39:45;;;;;;;28.45;7.40;;;;;;;;;;4882322;29;20481;-78
2022/01/18 08:42:20;;;;;;;29.25;7.50;;;;;;;;;;4866271;29;20041;-83
2022/01/18 08:44:46;;;;;;;24.52;7.07;;;;;;;;;;4882597;29;20459;-75
2022/01/18 08:47:14;;;;;;;27.48;7.47;;;;;;;;;;4881304;29;20049;-76
2022/01/18 08:49:43;;;;;;;23.77;7.55;;;;;;;;;;4882223;29;20060;-77
2022/01/18 08:52:09;;;;;;;23.30;8.13;;;;;;;;;;4867196;29;20053;-76
2022/01/18 08:54:35;;;;;;;33.03;8.68;;;;;;;;;;4882332;29;20080;-75
2022/01/18 08:57:02;;;;;;;24.40;8.27;;;;;;;;;;4882199;29;20088;-78
2022/01/18 08:59:29;;;;;;;42.58;9.23;;;;;;;;;;4866173;29;20068;-80
2022/01/18 09:01:57;;;;;;;38.30;8.93;;;;;;;;;;4867979;29;20064;-78
2022/01/18 09:04:23;;;;;;;25.90;8.00;;;;;;;;;;4866047;29;20033;-76
2022/01/18 09:06:51;;;;;;;40.60;9.68;;;;;;;;;;4888415;29;20048;-75
2022/01/18 09:09:18;;;;;;;50.72;9.20;;;;;;;;;;4891480;29;20053;-75
2022/01/18 09:11:45;;;;;;;31.60;8.88;;;;;;;;;;4882372;29;20049;-72
2022/01/18 09:14:12;;;;;;;44.00;9.13;;;;;;;;;;4879491;29;20413;-75
2022/01/18 09:16:38;;;;;;;21.80;7.88;;;;;;;;;;4880963;29;20056;-79
2022/01/18 09:19:05;;;;;;;32.03;8.50;;;;;;;;;;4866122;29;20044;-74
2022/01/18 09:21:32;;;;;;;14.63;5.20;;;;;;;;;;4881771;29;20469;-76
2022/01/18 09:23:59;;;;;;;16.15;5.03;;;;;;;;;;4887994;29;20089;-76
2022/01/18 09:26:25;;;;;;;14.27;5.70;;;;;;;;;;4880037;29;20032;-75
2022/01/18 09:28:51;;;;;;;10.63;5.00;;;;;;;;;;4881600;29;20083;-77
2022/01/18 09:31:19;;;;;;;14.65;5.28;;;;;;;;;;4865914;29;20060;-77
2022/01/18 09:33:45;;;;;;;13.65;5.97;;;;;;;;;;4865520;29;20053;-76
2022/01/18 09:36:11;;;;;;;12.88;4.93;;;;;;;;;;4881541;29;20520;-74
2022/01/18 09:38:37;;;;;;;14.13;5.28;;;;;;;;;;4881074;29;20053;-74
2022/01/18 09:41:09;;;;;;;16.55;5.10;;;;;;;;;;4881698;29;20048;-73
2022/01/18 09:43:37;;;;;;;9.27;4.47;;;;;;;;;;4880565;29;20049;-75
2022/01/18 09:46:04;;;;;;;11.57;4.75;;;;;;;;;;4877772;29;20056;-74
2022/01/18 09:48:31;;;;;;;13.02;4.90;;;;;;;;;;4879272;29;20059;-76
2022/01/18 09:51:00;;;;;;;14.07;4.68;;;;;;;;;;4879632;29;20115;-76
2022/01/18 09:53:27;;;;;;;18.75;4.85;;;;;;;;;;4881070;29;20582;-75
2022/01/18 09:55:53;;;;;;;25.88;7.20;;;;;;;;;;4881550;29;20056;-74
2022/01/18 09:58:20;;;;;;;21.27;6.28;;;;;;;;;;4880525;29;20051;-75
2022/01/18 10:00:46;;;;;;;20.98;7.03;;;;;;;;;;4881092;29;20099;-74
2022/01/18 10:03:26;;;;;;;14.13;6.10;;;;;;;;;;4890231;29;20037;-74
2022/01/18 10:05:52;;;;;;;11.32;5.18;;;;;;;;;;4864138;29;20119;-74
2022/01/18 10:08:19;;;;;;;17.00;6.15;;;;;;;;;;4896099;29;20044;-76
2022/01/18 10:10:46;;;;;;;13.55;5.40;;;;;;;;;;4881632;29;20100;-75
2022/01/18 10:13:31;;;;;;;15.95;6.47;;;;;;;;;;4880261;29;20036;-76
2022/01/18 10:16:03;;;;;;;17.88;5.43;;;;;;;;;;4897248;29;20376;-76
2022/01/18 10:18:40;;;;;;;14.13;4.80;;;;;;;;;;4879049;29;20117;-75
2022/01/18 10:21:08;;;;;;;12.48;4.95;;;;;;;;;;4896711;29;20048;-76
2022/01/18 10:23:34;;;;;;;8.98;4.72;;;;;;;;;;4881210;29;20067;-76
2022/01/18 10:26:15;;;;;;;12.60;4.60;;;;;;;;;;4880661;29;20044;-76
2022/01/18 10:28:41;;;;;;;8.98;4.93;;;;;;;;;;4880908;29;20120;-77
2022/01/18 10:31:23;;;;;;;10.55;5.07;;;;;;;;;;4881103;29;20049;-77
2022/01/18 10:34:08;;;;;;;11.35;5.63;;;;;;;;;;4880581;29;20045;-76
2022/01/18 10:36:34;;;;;;;9.93;4.80;;;;;;;;;;4880855;29;20045;-76
2022/01/18 10:39:03;;;;;;;10.38;4.97;;;;;;;;;;4865038;29;20049;-76
2022/01/18 10:41:34;;;;;;;11.73;5.20;;;;;;;;;;4880384;29;20394;-76
2022/01/18 10:44:06;;;;;;;11.15;5.00;;;;;;;;;;4879079;29;20040;-75
2022/01/18 10:46:36;;;;;;;14.40;5.25;;;;;;;;;;4880181;29;20162;-75
2022/01/18 10:49:03;;;;;;;11.27;5.15;;;;;;;;;;4865797;29;20084;-76
2022/01/18 10:51:30;;;;;;;14.18;4.80;;;;;;;;;;4890247;29;20049;-76
2022/01/18 10:53:58;;;;;;;12.93;4.68;;;;;;;;;;4865239;29;20049;-76
2022/01/18 10:56:24;;;;;;;12.57;5.28;;;;;;;;;;4880822;29;20040;-76
2022/01/18 10:58:57;;;;;;;12.02;4.75;;;;;;;;;;4879876;29;20067;-75
2022/01/18 11:01:24;;;;;;;11.18;4.38;;;;;;;;;;4880285;29;20044;-76
2022/01/18 11:04:11;;;;;;;14.70;4.63;;;;;;;;;;4880198;29;20563;-75
2022/01/18 11:06:37;;;;;;;17.42;4.68;;;;;;;;;;4880201;29;20037;-77
2022/01/18 11:09:09;;;;;;;8.20;4.43;;;;;;;;;;4880532;29;20049;-76
2022/01/18 11:11:48;;;;;;;14.25;5.40;;;;;;;;;;4880195;29;20152;-76
2022/01/18 11:14:17;;;;;;;13.55;4.93;;;;;;;;;;4864797;29;20052;-75
2022/01/18 11:16:44;;;;;;;12.63;5.30;;;;;;;;;;4880263;29;20045;-76
2022/01/18 11:21:46;;;;;;;;;;;;;;;;;;4880426;29;20112;-77
2022/01/18 11:24:15;;;;;;;12.13;7.30;;;;;;;;;;4878859;29;20351;-76
2022/01/18 11:26:42;;;;;;;12.10;6.55;;;;;;;;;;4880548;29;20477;-77
2022/01/18 11:29:09;;;;;;;16.70;6.30;;;;;;;;;;4864674;29;20055;-76
2022/01/18 11:31:35;;;;;;;16.50;6.60;;;;;;;;;;4880262;29;20150;-77
2022/01/18 11:34:01;;;;;;;18.98;6.55;;;;;;;;;;4898637;29;20084;-76
2022/01/18 11:36:33;;;;;;;19.92;7.43;;;;;;;;;;4883990;29;20063;-76
2022/01/18 11:39:01;;;;;;;15.20;6.30;;;;;;;;;;4860880;29;20123;-78
2022/01/18 11:41:29;;;;;;;16.52;6.55;;;;;;;;;;4877813;29;20041;-78
2022/01/18 11:43:56;;;;;;;13.30;7.18;;;;;;;;;;4879913;29;20057;-78
2022/01/18 11:46:22;;;;;;;14.45;6.82;;;;;;;;;;4861982;29;20342;-77
2022/01/18 11:48:49;;;;;;;16.15;7.60;;;;;;;;;;4861262;29;20080;-77
2022/01/18 11:51:19;;;;;;;17.08;7.57;;;;;;;;;;4861728;29;20051;-77
2022/01/18 11:53:55;;;;;;;15.43;6.75;;;;;;;;;;4878511;29;20041;-79
2022/01/18 11:56:21;;;;;;;;;;;;;;;;;;4866956;29;20064;-74
2022/01/18 11:59:07;;;;;;;14.00;6.55;;;;;;;;;;4877393;29;20363;-77
2022/01/18 12:01:52;;;;;;;13.27;6.57;;;;;;;;;;4878883;29;20469;-77
2022/01/18 12:04:37;;;;;;;11.40;5.53;;;;;;;;;;4862566;29;20041;-78
2022/01/18 12:07:03;;;;;;;16.67;5.85;;;;;;;;;;4862440;29;20072;-77
2022/01/18 12:09:37;;;;;;;12.85;5.85;;;;;;;;;;4874639;29;20059;-77
2022/01/18 12:12:04;;;;;;;13.65;6.07;;;;;;;;;;4877949;29;20045;-76
2022/01/18 12:14:33;;;;;;;12.82;5.95;;;;;;;;;;4863391;29;20057;-77
2022/01/18 12:17:13;;;;;;;14.48;6.32;;;;;;;;;;4861987;29;20061;-77
2022/01/18 12:19:44;;;;;;;11.98;5.57;;;;;;;;;;4886183;29;20112;-77
2022/01/18 12:22:11;;;;;;;12.27;5.78;;;;;;;;;;4879032;29;20049;-79
2022/01/18 12:24:37;;;;;;;9.20;5.60;;;;;;;;;;4862995;29;20461;-83
2022/01/18 12:27:22;;;;;;;12.52;5.60;;;;;;;;;;4863755;29;20055;-78
2022/01/18 12:30:14;;;;;;;13.70;5.68;;;;;;;;;;4862716;29;20049;-78
2022/01/18 12:32:56;;;;;;;13.18;5.53;;;;;;;;;;4889305;29;20044;-79
2022/01/18 12:35:25;;;;;;;13.60;6.18;;;;;;;;;;4880449;29;20413;-78
2022/01/18 12:37:51;;;;;;;19.85;6.53;;;;;;;;;;4861852;29;20362;-77
2022/01/18 12:40:29;;;;;;;12.40;5.40;;;;;;;;;;4861194;29;20053;-78
2022/01/18 12:45:26;;;;;;;11.10;6.53;;;;;;;;;;4878303;29;20056;-78
2022/01/18 12:47:58;;;;;;;13.68;7.00;;;;;;;;;;4859324;29;20147;-77
2022/01/18 12:50:33;;;;;;;14.73;7.25;;;;;;;;;;4860463;29;20132;-77
2022/01/18 12:53:01;;;;;;;13.20;7.05;;;;;;;;;;4863081;29;20053;-78
2022/01/18 12:55:47;;;;;;;13.13;6.97;;;;;;;;;;4877252;29;20091;-76
2022/01/18 12:58:15;;;;;;;16.80;8.00;;;;;;;;;;4862898;29;20057;-78
2022/01/18 13:00:43;;;;;;;15.13;7.22;;;;;;;;;;4861821;29;20049;-77
2022/01/18 13:03:09;;;;;;;16.70;7.13;;;;;;;;;;4862351;29;20053;-80
2022/01/18 13:05:40;;;;;;;16.05;7.43;;;;;;;;;;4877474;29;20060;-77
2022/01/18 13:08:06;;;;;;;16.67;7.75;;;;;;;;;;4862689;29;20052;-77
2022/01/18 13:10:36;;;;;;;18.08;7.88;;;;;;;;;;4860885;29;20049;-77
2022/01/18 13:13:03;;;;;;;16.85;6.97;;;;;;;;;;4866232;29;20040;-77
2022/01/18 13:16:06;;;;;;;17.40;7.93;;;;;;;;;;4881030;29;20381;-76
2022/01/18 13:24:29;;;;;;;13.05;7.22;;;;;;;;;;4880516;29;20041;-77
2022/01/18 13:26:56;;;;;;;16.10;7.45;;;;;;;;;;4881061;29;20053;-77
2022/01/18 13:29:24;;;;;;;16.85;7.05;;;;;;;;;;4864594;29;20072;-78
2022/01/18 13:32:28;;;;;;;14.40;6.35;;;;;;;;;;4865938;29;20049;-78
2022/01/18 13:34:57;;;;;;;16.48;6.65;;;;;;;;;;4819644;29;20477;-76
2022/01/18 13:37:27;;;;;;;13.98;6.47;;;;;;;;;;4862493;29;20073;-78
2022/01/18 13:40:27;;;;;;;14.23;7.10;;;;;;;;;;4881573;29;20041;-78
2022/01/18 13:43:03;;;;;;;15.55;7.22;;;;;;;;;;4868241;29;20060;-77
2022/01/18 13:45:29;;;;;;;;;;;;;;;;;;4865103;29;20044;-79
2022/01/18 13:48:02;;;;;;;14.05;6.30;;;;;;;;;;4889261;29;19990;-81
2022/01/18 13:50:44;;;;;;;14.48;6.72;;;;;;;;;;4897495;29;20330;-79
2022/01/18 13:53:33;;;;;;;17.50;6.97;;;;;;;;;;4897092;29;20365;-78
2022/01/18 13:56:04;;;;;;;17.48;6.70;;;;;;;;;;4866863;29;20056;-78
2022/01/18 13:58:33;;;;;;;17.70;7.72;;;;;;;;;;4880786;29;20128;-77
2022/01/18 14:01:13;;;;;;;19.35;8.38;;;;;;;;;;4866062;29;20051;-77
2022/01/18 14:03:47;;;;;;;17.50;8.48;;;;;;;;;;4866042;29;20052;-78
2022/01/18 14:06:15;;;;;;;18.58;7.70;;;;;;;;;;4871435;29;20123;-77
2022/01/18 14:08:43;;;;;;;19.88;8.73;;;;;;;;;;4881028;29;20384;-78
2022/01/18 14:11:11;;;;;;;19.63;9.18;;;;;;;;;;4865718;29;20045;-79
2022/01/18 14:13:38;;;;;;;18.08;8.88;;;;;;;;;;4867451;29;20037;-77
2022/01/18 14:16:25;;;;;;;18.25;9.30;;;;;;;;;;4881706;29;20041;-78
2022/01/18 14:19:11;;;;;;;20.58;10.38;;;;;;;;;;4856292;29;20112;-80
2022/01/18 14:21:47;;;;;;;18.20;9.73;;;;;;;;;;4866503;29;20053;-79
2022/01/18 14:24:14;;;;;;;25.10;11.52;;;;;;;;;;4879205;29;20033;-79
2022/01/18 14:26:52;;;;;;;23.58;10.95;;;;;;;;;;4865149;29;20052;-80
2022/01/18 14:29:23;;;;;;;20.15;10.60;;;;;;;;;;4865697;29;20044;-80
2022/01/18 14:31:58;;;;;;;28.88;13.48;;;;;;;;;;4879875;29;20350;-78
2022/01/18 14:34:47;;;;;;;34.80;14.07;;;;;;;;;;4866117;29;20049;-79
2022/01/18 14:37:14;;;;;;;20.42;11.38;;;;;;;;;;4871538;29;20137;-79
2022/01/18 14:39:59;;;;;;;23.80;12.95;;;;;;;;;;4865113;29;20128;-78
2022/01/18 14:42:29;;;;;;;21.55;12.63;;;;;;;;;;4876533;29;20041;-81
2022/01/18 14:45:02;;;;;;;24.88;12.77;;;;;;;;;;4879735;29;20037;-79
2022/01/18 14:47:28;;;;;;;23.98;12.82;;;;;;;;;;4863723;29;20537;-77
2022/01/18 14:49:58;;;;;;;30.17;13.68;;;;;;;;;;4863810;29;20049;-79
2022/01/18 14:52:25;;;;;;;26.17;12.40;;;;;;;;;;4879844;29;20477;-77
2022/01/18 14:54:52;;;;;;;24.63;13.25;;;;;;;;;;4864743;29;20049;-78
2022/01/18 14:57:18;;;;;;;23.83;12.10;;;;;;;;;;4864872;29;20053;-80
2022/01/18 14:59:44;;;;;;;27.10;11.88;;;;;;;;;;4879760;29;20053;-79
2022/01/18 15:02:12;;;;;;;19.52;10.70;;;;;;;;;;4848576;29;20456;-79
2022/01/18 15:04:39;;;;;;;19.60;11.30;;;;;;;;;;4880093;29;20127;-79
2022/01/18 15:07:05;;;;;;;23.80;11.35;;;;;;;;;;4864548;29;20438;-79
2022/01/18 15:09:31;;;;;;;25.48;12.30;;;;;;;;;;4864204;29;20591;-81
2022/01/18 15:11:58;;;;;;;23.90;10.82;;;;;;;;;;4879615;29;20076;-81
2022/01/18 15:14:25;;;;;;;14.80;8.77;;;;;;;;;;4879088;29;20048;-80
2022/01/18 15:16:51;;;;;;;18.77;9.80;;;;;;;;;;4864578;29;20053;-78
2022/01/18 15:19:17;;;;;;;16.20;9.85;;;;;;;;;;4879810;29;20049;-79
2022/01/18 15:21:43;;;;;;;18.48;10.07;;;;;;;;;;4863648;29;20053;-81
2022/01/18 15:24:09;;;;;;;15.15;9.52;;;;;;;;;;4864406;29;20100;-79
2022/01/18 15:26:35;;;;;;;17.25;9.60;;;;;;;;;;4864350;29;20420;-79
2022/01/18 15:29:01;;;;;;;17.95;9.45;;;;;;;;;;4879978;29;20056;-80
2022/01/18 15:31:27;;;;;;;23.88;10.52;;;;;;;;;;4863082;29;20057;-78
2022/01/18 15:33:53;;;;;;;20.05;8.70;;;;;;;;;;4864003;29;20381;-81
2022/01/18 15:36:20;;;;;;;29.85;9.75;;;;;;;;;;4863206;29;20041;-82
2022/01/18 15:38:47;;;;;;;23.67;10.60;;;;;;;;;;4863870;29;20053;-78
2022/01/18 15:41:13;;;;;;;16.95;10.05;;;;;;;;;;4863731;29;20077;-79
2022/01/18 15:43:41;;;;;;;27.98;11.05;;;;;;;;;;4879546;29;20560;-83
2022/01/18 15:46:07;;;;;;;19.42;9.63;;;;;;;;;;4877873;29;20053;-80
2022/01/18 15:48:34;;;;;;;24.95;11.13;;;;;;;;;;4863174;29;20116;-77
2022/01/18 15:51:00;;;;;;;33.28;12.90;;;;;;;;;;4878854;29;20079;-77